Time;durP1;ratioP1;P1;durP2;ratioP2;P2;SDS_P1;SDS_P2;PMS_P1;PMS_P2;Temp;Humidity;BMP_temperature;BMP_pressure;BME280_temperature;BME280_humidity;BME280_pressure;Samples;Min_cycle;Max_cycle;Signal;HPM_P1;HPM_P2
2021/04/19 00:00:12;;;;;;;9.97;9.17;;;11.00;99.90;;;;;;5034956;28;20775;-42
2021/04/19 00:02:38;;;;;;;10.17;9.27;;;10.90;99.90;;;;;;5046379;28;20433;-39
2021/04/19 00:05:09;;;;;;;10.07;9.17;;;10.90;99.90;;;;;;5046816;28;20760;-46
2021/04/19 00:07:35;;;;;;;10.97;9.47;;;10.90;99.90;;;;;;5046416;28;20755;-40
2021/04/19 00:10:02;;;;;;;9.60;8.70;;;10.90;99.90;;;;;;5046060;28;20440;-42
2021/04/19 00:12:28;;;;;;;11.53;9.97;;;10.80;99.90;;;;;;5046235;28;20189;-39
2021/04/19 00:14:54;;;;;;;10.30;9.23;;;10.80;99.90;;;;;;5035361;28;20677;-39
2021/04/19 00:17:19;;;;;;;11.20;10.00;;;10.80;99.90;;;;;;5039870;28;20256;-42
2021/04/19 00:19:45;;;;;;;10.53;9.53;;;10.80;99.90;;;;;;5045468;28;20304;-42
2021/04/19 00:22:10;;;;;;;11.80;10.50;;;10.90;99.90;;;;;;5046834;28;20273;-43
2021/04/19 00:24:36;;;;;;;10.17;9.17;;;10.60;99.90;;;;;;5046200;28;20186;-45
2021/04/19 00:27:02;;;;;;;10.87;9.77;;;10.60;99.90;;;;;;5046116;28;20188;-46
2021/04/19 00:29:28;;;;;;;10.63;9.60;;;10.60;99.90;;;;;;5039789;28;20204;-41
2021/04/19 00:31:53;;;;;;;11.50;10.40;;;10.40;99.90;;;;;;5036860;28;20670;-39
2021/04/19 00:34:19;;;;;;;10.80;9.70;;;10.60;99.90;;;;;;5044432;28;20204;-41
2021/04/19 00:36:45;;;;;;;11.40;10.27;;;10.70;99.90;;;;;;5043884;28;20327;-40
2021/04/19 00:39:11;;;;;;;10.53;9.53;;;10.60;99.90;;;;;;5045674;28;20242;-45
2021/04/19 00:41:36;;;;;;;10.83;9.80;;;10.70;99.90;;;;;;5045925;28;20209;-40
2021/04/19 00:44:02;;;;;;;11.87;10.70;;;10.70;99.90;;;;;;5043718;28;20564;-44
2021/04/19 00:46:28;;;;;;;10.87;9.87;;;10.60;99.90;;;;;;5036575;28;20661;-40
2021/04/19 00:48:54;;;;;;;11.47;10.37;;;10.60;99.90;;;;;;5045252;28;20420;-43
2021/04/19 00:51:19;;;;;;;11.00;10.00;;;10.50;99.90;;;;;;5045835;28;20185;-43
2021/04/19 00:53:45;;;;;;;11.97;10.77;;;10.50;99.90;;;;;;5045756;28;20243;-39
2021/04/19 00:56:12;;;;;;;11.80;10.60;;;10.50;99.90;;;;;;5045568;28;20205;-40
2021/04/19 00:58:40;;;;;;;11.90;10.70;;;10.50;99.90;;;;;;5045536;28;20552;-40
2021/04/19 01:01:07;;;;;;;11.00;9.90;;;10.50;99.90;;;;;;5033499;28;20481;-42
2021/04/19 01:03:34;;;;;;;12.50;11.30;;;10.40;99.90;;;;;;5045599;28;20429;-40
2021/04/19 01:06:00;;;;;;;11.50;10.37;;;10.40;99.90;;;;;;5046019;28;20423;-43
2021/04/19 01:08:25;;;;;;;11.40;10.30;;;10.40;99.90;;;;;;5027535;28;20440;-40
2021/04/19 01:10:51;;;;;;;11.37;10.27;;;10.60;99.90;;;;;;5045208;28;20432;-45
2021/04/19 01:13:17;;;;;;;12.00;10.90;;;10.50;99.90;;;;;;5044274;28;20239;-43
2021/04/19 01:15:43;;;;;;;11.83;10.63;;;10.30;99.90;;;;;;5034953;28;20425;-41
2021/04/19 01:18:09;;;;;;;11.47;10.43;;;10.30;99.90;;;;;;5045491;28;20275;-40
2021/04/19 01:20:42;;;;;;;12.13;10.93;;;10.40;99.90;;;;;;5045338;28;20193;-39
2021/04/19 01:23:10;;;;;;;13.13;11.83;;;10.30;99.90;;;;;;5043821;28;20507;-44
2021/04/19 01:25:36;;;;;;;13.00;11.47;;;10.20;99.90;;;;;;5045617;28;20416;-40
2021/04/19 01:28:02;;;;;;;13.43;12.03;;;10.30;99.90;;;;;;5045459;28;21017;-43
2021/04/19 01:30:43;;;;;;;14.97;13.57;;;10.30;99.90;;;;;;5037091;28;20202;-41
2021/04/19 01:33:08;;;;;;;14.63;13.13;;;10.40;99.90;;;;;;5044306;28;20930;-39
2021/04/19 01:35:35;;;;;;;13.10;11.90;;;10.40;99.90;;;;;;5043310;28;20454;-44
2021/04/19 01:38:03;;;;;;;14.13;12.73;;;10.40;99.90;;;;;;5044972;28;20594;-39
2021/04/19 01:40:28;;;;;;;14.47;13.07;;;10.60;99.90;;;;;;5044799;28;21004;-44
2021/04/19 01:42:55;;;;;;;14.37;12.87;;;10.60;99.90;;;;;;5045205;28;20432;-39
2021/04/19 01:45:20;;;;;;;15.47;13.30;;;10.70;99.90;;;;;;5038610;28;20854;-41
2021/04/19 01:47:46;;;;;;;15.93;14.33;;;10.60;99.90;;;;;;5044778;28;20520;-46
2021/04/19 01:50:15;;;;;;;17.53;15.73;;;10.60;99.90;;;;;;5044374;28;20239;-43
2021/04/19 01:52:41;;;;;;;15.67;14.17;;;10.70;99.90;;;;;;5045537;28;20420;-40
2021/04/19 01:55:11;;;;;;;17.30;14.93;;;10.60;99.90;;;;;;5045075;28;21008;-41
2021/04/19 01:57:39;;;;;;;17.50;15.70;;;10.60;99.90;;;;;;5045552;28;20617;-43
2021/04/19 02:00:09;;;;;;;17.97;16.07;;;10.50;99.90;;;;;;5042249;28;20495;-44
2021/04/19 02:03:13;;;;;;;17.20;15.40;;;10.60;99.90;;;;;;5035034;28;20416;-42
2021/04/19 02:05:48;;;;;;;18.17;16.33;;;10.60;99.90;;;;;;5043617;28;20431;-42
2021/04/19 02:08:27;;;;;;;17.90;16.13;;;10.50;99.90;;;;;;5045579;28;20507;-41
2021/04/19 02:11:16;;;;;;;18.47;16.47;;;10.40;99.90;;;;;;5045970;28;20531;-39
2021/04/19 02:13:47;;;;;;;20.07;18.13;;;10.50;99.90;;;;;;5049405;28;20443;-41
2021/04/19 02:16:26;;;;;;;20.07;17.27;;;10.50;99.90;;;;;;5037686;28;20435;-40
2021/04/19 02:19:00;;;;;;;19.70;17.70;;;10.60;99.90;;;;;;5046725;28;20444;-42
2021/04/19 02:21:57;;;;;;;21.23;18.93;;;10.40;99.90;;;;;;5048766;28;20469;-39
2021/04/19 02:24:26;;;;;;;19.83;17.83;;;10.40;99.90;;;;;;5048089;28;20423;-39
2021/04/19 02:26:57;;;;;;;19.47;17.47;;;10.40;99.90;;;;;;5035778;28;20408;-41
2021/04/19 02:29:44;;;;;;;19.57;17.37;;;10.40;99.90;;;;;;5048732;28;20438;-39
2021/04/19 02:32:17;;;;;;;20.17;18.17;;;10.50;99.90;;;;;;5035524;28;20954;-39
2021/04/19 02:34:46;;;;;;;18.17;16.37;;;10.30;99.90;;;;;;5049010;28;20752;-39
2021/04/19 02:37:13;;;;;;;18.50;16.60;;;10.40;99.90;;;;;;5058884;28;20754;-46
2021/04/19 02:39:42;;;;;;;18.50;16.60;;;10.40;99.90;;;;;;5062889;28;20463;-44
2021/04/19 02:42:09;;;;;;;19.10;17.03;;;10.40;99.90;;;;;;5069063;28;20426;-41
2021/04/19 02:44:36;;;;;;;18.07;16.30;;;10.30;99.90;;;;;;5068612;28;20419;-39
2021/04/19 02:47:05;;;;;;;19.73;17.50;;;10.50;99.90;;;;;;5041690;28;20433;-45
2021/04/19 02:49:33;;;;;;;20.17;17.97;;;10.30;99.90;;;;;;5044320;28;20730;-42
2021/04/19 02:52:01;;;;;;;20.43;17.93;;;10.40;99.90;;;;;;5048786;28;21034;-40
2021/04/19 02:54:27;;;;;;;20.43;18.43;;;10.40;99.90;;;;;;5048214;28;20633;-42
2021/04/19 02:56:54;;;;;;;23.10;20.73;;;10.30;99.90;;;;;;5047961;28;20505;-42
2021/04/19 02:59:23;;;;;;;20.27;18.27;;;10.60;99.90;;;;;;5047449;28;20970;-40
2021/04/19 03:01:54;;;;;;;21.17;19.00;;;10.30;99.90;;;;;;5039704;28;20833;-40
2021/04/19 03:04:23;;;;;;;21.20;19.03;;;10.50;99.90;;;;;;5047882;28;20428;-43
2021/04/19 03:06:52;;;;;;;20.90;18.90;;;10.30;99.90;;;;;;5046797;28;21007;-43
2021/04/19 03:09:20;;;;;;;19.97;18.10;;;10.40;99.90;;;;;;5047083;28;20420;-44
2021/04/19 03:11:52;;;;;;;21.13;19.07;;;10.40;99.90;;;;;;5047194;28;20420;-39
2021/04/19 03:14:21;;;;;;;21.23;19.00;;;10.60;99.90;;;;;;5047700;28;20439;-39
2021/04/19 03:16:50;;;;;;;21.20;19.00;;;10.50;99.90;;;;;;5045840;28;20490;-40
2021/04/19 03:19:24;;;;;;;22.57;20.27;;;10.40;99.90;;;;;;5041907;28;20523;-41
2021/04/19 03:21:50;;;;;;;22.40;20.20;;;10.50;99.90;;;;;;5046853;28;20715;-43
2021/04/19 03:24:17;;;;;;;20.43;18.33;;;10.50;99.90;;;;;;5047469;28;20435;-41
2021/04/19 03:26:45;;;;;;;20.20;18.20;;;10.50;99.90;;;;;;5047294;28;20802;-46
2021/04/19 03:29:11;;;;;;;20.90;18.73;;;10.40;99.90;;;;;;5047090;28;20416;-42
2021/04/19 03:31:36;;;;;;;21.30;19.13;;;10.60;99.90;;;;;;5043760;28;20444;-39
2021/04/19 03:34:06;;;;;;;20.37;18.37;;;10.60;99.90;;;;;;5039913;28;20446;-44
2021/04/19 03:36:34;;;;;;;20.40;18.50;;;10.50;99.90;;;;;;5045427;28;20658;-42
2021/04/19 03:39:02;;;;;;;20.90;18.70;;;10.50;99.90;;;;;;5046635;28;20456;-43
2021/04/19 03:41:31;;;;;;;21.87;19.57;;;10.40;99.90;;;;;;5047144;28;20405;-42
2021/04/19 03:44:00;;;;;;;21.57;19.47;;;10.50;99.90;;;;;;5046755;28;20416;-41
2021/04/19 03:46:28;;;;;;;21.50;19.20;;;10.50;99.90;;;;;;5046920;28;20425;-39
2021/04/19 03:49:00;;;;;;;18.27;16.47;;;10.40;99.90;;;;;;5030207;28;20483;-40
2021/04/19 03:51:27;;;;;;;20.77;18.60;;;10.40;99.90;;;;;;5046875;28;20506;-45
2021/04/19 03:53:56;;;;;;;19.40;17.57;;;10.40;99.90;;;;;;5046700;28;20416;-44
2021/04/19 03:56:24;;;;;;;19.10;17.17;;;10.30;99.90;;;;;;5047223;28;20420;-42
2021/04/19 03:58:51;;;;;;;20.03;18.03;;;10.20;99.90;;;;;;5045500;28;20452;-40
2021/04/19 04:01:18;;;;;;;19.60;17.70;;;10.30;99.90;;;;;;5046526;28;20424;-42
2021/04/19 04:03:46;;;;;;;19.30;17.40;;;10.20;99.90;;;;;;5033406;28;20530;-40
2021/04/19 04:06:12;;;;;;;19.80;17.70;;;10.20;99.90;;;;;;5046869;28;20440;-39
2021/04/19 04:08:39;;;;;;;20.60;18.50;;;10.20;99.90;;;;;;5047066;28;20519;-42
2021/04/19 04:11:05;;;;;;;20.90;18.87;;;10.20;99.90;;;;;;5046073;28;20265;-41
2021/04/19 04:13:34;;;;;;;23.00;20.60;;;10.20;99.90;;;;;;5047120;28;20428;-44
2021/04/19 04:16:01;;;;;;;22.73;20.33;;;10.20;99.90;;;;;;5046462;28;20555;-40
2021/04/19 04:18:27;;;;;;;23.10;20.70;;;10.20;99.90;;;;;;5036472;28;20862;-40
2021/04/19 04:20:53;;;;;;;22.23;19.83;;;10.20;99.90;;;;;;5044071;28;20431;-42
2021/04/19 04:23:19;;;;;;;21.97;19.63;;;10.20;99.90;;;;;;5046765;28;20595;-39
2021/04/19 04:25:46;;;;;;;22.37;20.17;;;10.20;99.90;;;;;;5046424;28;20421;-43
2021/04/19 04:28:13;;;;;;;22.10;19.80;;;10.30;99.90;;;;;;5046600;28;20424;-40
2021/04/19 04:30:39;;;;;;;22.67;20.40;;;10.20;99.90;;;;;;5045486;28;20431;-41
2021/04/19 04:33:06;;;;;;;24.03;20.97;;;10.30;99.90;;;;;;5041203;28;20454;-45
2021/04/19 04:35:34;;;;;;;24.47;21.87;;;10.40;99.90;;;;;;5040245;28;20451;-41
2021/04/19 04:38:00;;;;;;;23.33;20.87;;;10.20;99.90;;;;;;5045955;28;20487;-40
2021/04/19 04:40:27;;;;;;;25.20;22.60;;;10.30;99.90;;;;;;5045760;28;20430;-42
2021/04/19 04:43:14;;;;;;;26.10;23.30;;;10.50;99.90;;;;;;5044917;28;20412;-40
2021/04/19 04:45:41;;;;;;;24.10;21.63;;;10.10;99.90;;;;;;5046320;28;20837;-40
2021/04/19 04:48:14;;;;;;;24.60;21.33;;;10.10;99.90;;;;;;5039015;28;20428;-40
2021/04/19 04:50:44;;;;;;;24.97;22.40;;;10.00;99.90;;;;;;5035443;28;20424;-41
2021/04/19 04:53:18;;;;;;;22.77;20.37;;;10.10;99.90;;;;;;5047753;28;20930;-41
2021/04/19 04:55:47;;;;;;;24.67;21.80;;;10.30;99.90;;;;;;5046092;28;20455;-42
2021/04/19 04:58:17;;;;;;;24.87;22.17;;;10.10;99.90;;;;;;5044617;28;20547;-40
2021/04/19 05:00:44;;;;;;;25.00;21.97;;;10.30;99.90;;;;;;5045294;28;20948;-39
2021/04/19 05:03:11;;;;;;;25.90;23.10;;;10.10;99.90;;;;;;5045848;28;20409;-40
2021/04/19 05:05:39;;;;;;;24.30;21.57;;;10.00;99.90;;;;;;5032755;28;20431;-42
2021/04/19 05:08:08;;;;;;;24.63;22.03;;;10.10;99.90;;;;;;5045657;28;20844;-40
2021/04/19 05:10:34;;;;;;;23.97;21.10;;;10.10;99.90;;;;;;5045085;28;20463;-44
2021/04/19 05:13:00;;;;;;;25.67;22.03;;;10.20;99.90;;;;;;5046412;28;20830;-42
2021/04/19 05:15:26;;;;;;;24.67;21.10;;;10.40;99.90;;;;;;5045740;28;20463;-40
2021/04/19 05:17:52;;;;;;;23.87;21.37;;;10.20;99.90;;;;;;5046193;28;20186;-40
2021/04/19 05:20:18;;;;;;;22.83;20.40;;;10.30;99.90;;;;;;5034641;28;20447;-41
2021/04/19 05:22:44;;;;;;;22.83;20.37;;;10.30;99.90;;;;;;5045358;28;20189;-40
2021/04/19 05:25:11;;;;;;;20.70;18.50;;;10.60;99.90;;;;;;5045593;28;20443;-40
2021/04/19 05:27:37;;;;;;;22.40;20.10;;;10.30;99.90;;;;;;5045941;28;20466;-43
2021/04/19 05:30:04;;;;;;;21.90;19.60;;;10.30;99.90;;;;;;5050963;28;20427;-44
2021/04/19 05:32:29;;;;;;;22.80;19.10;;;10.30;99.90;;;;;;5065850;28;20919;-39
2021/04/19 05:34:56;;;;;;;20.77;18.63;;;10.40;99.90;;;;;;5044105;28;20520;-42
2021/04/19 05:37:24;;;;;;;21.50;19.20;;;10.30;99.90;;;;;;5044538;28;20408;-40
2021/04/19 05:39:51;;;;;;;23.90;21.23;;;10.30;99.90;;;;;;5043195;28;20871;-43
2021/04/19 05:42:17;;;;;;;22.33;19.93;;;10.30;99.90;;;;;;5044670;28;20915;-42
2021/04/19 05:44:44;;;;;;;23.27;20.80;;;10.50;99.90;;;;;;5043110;28;20602;-41
2021/04/19 05:47:11;;;;;;;21.93;19.63;;;10.30;99.90;;;;;;5046806;28;20499;-39
2021/04/19 05:49:37;;;;;;;22.60;19.37;;;10.40;99.90;;;;;;5043675;28;20970;-41
2021/04/19 05:52:05;;;;;;;22.30;19.90;;;10.30;99.90;;;;;;5048573;28;20427;-41
2021/04/19 05:54:34;;;;;;;21.93;19.70;;;10.30;99.90;;;;;;5049453;28;20189;-43
2021/04/19 05:57:08;;;;;;;21.87;19.57;;;10.40;99.90;;;;;;5049320;28;20478;-40
2021/04/19 05:59:52;;;;;;;21.43;19.23;;;10.30;99.90;;;;;;5048911;28;20460;-42
2021/04/19 06:02:49;;;;;;;22.10;19.70;;;10.30;99.90;;;;;;5048719;28;20400;-41
2021/04/19 06:05:27;;;;;;;22.30;19.90;;;10.40;99.90;;;;;;5040260;28;20423;-44
2021/04/19 06:08:12;;;;;;;22.80;19.17;;;10.40;99.90;;;;;;5049036;28;20802;-40
2021/04/19 06:10:46;;;;;;;22.10;19.00;;;10.50;99.90;;;;;;5036154;28;20447;-40
2021/04/19 06:13:14;;;;;;;22.00;19.70;;;10.50;99.90;;;;;;5048578;28;20412;-41
2021/04/19 06:15:40;;;;;;;22.83;19.33;;;10.40;99.90;;;;;;5038959;28;20416;-39
2021/04/19 06:18:08;;;;;;;23.10;20.43;;;10.60;99.90;;;;;;5048567;28;20509;-40
2021/04/19 06:20:35;;;;;;;23.57;20.70;;;10.70;99.90;;;;;;5035956;28;20460;-40
2021/04/19 06:23:01;;;;;;;23.03;20.57;;;10.60;99.90;;;;;;5046613;28;20443;-39
2021/04/19 06:25:28;;;;;;;21.53;19.23;;;10.60;99.90;;;;;;5048729;28;20439;-40
2021/04/19 06:28:01;;;;;;;20.17;18.03;;;10.60;99.90;;;;;;5049124;28;20458;-41
2021/04/19 06:30:31;;;;;;;20.20;18.00;;;10.60;99.90;;;;;;5047916;28;20420;-41
2021/04/19 06:32:58;;;;;;;20.13;17.47;;;10.60;99.90;;;;;;5048661;28;20444;-41
2021/04/19 06:35:24;;;;;;;22.10;19.37;;;10.70;99.90;;;;;;5035428;28;20892;-40
2021/04/19 06:37:57;;;;;;;21.27;19.10;;;10.70;99.90;;;;;;5051852;28;20478;-42
2021/04/19 06:40:25;;;;;;;20.60;18.40;;;10.70;99.90;;;;;;5047964;28;20182;-40
2021/04/19 06:42:53;;;;;;;22.00;18.87;;;10.70;99.90;;;;;;5047521;28;20420;-43
2021/04/19 06:45:20;;;;;;;20.63;18.47;;;10.70;99.90;;;;;;5048501;28;20474;-41
2021/04/19 06:47:47;;;;;;;21.60;19.30;;;10.70;99.90;;;;;;5048448;28;20420;-41
2021/04/19 06:50:13;;;;;;;23.57;20.00;;;10.70;99.90;;;;;;5045085;28;20511;-41
2021/04/19 06:52:46;;;;;;;23.53;21.03;;;10.70;99.90;;;;;;5047507;28;20426;-44
2021/04/19 06:55:12;;;;;;;24.10;20.70;;;10.90;99.90;;;;;;5044887;28;20437;-42
2021/04/19 06:57:43;;;;;;;26.10;19.23;;;10.90;99.90;;;;;;5047666;28;20939;-42
2021/04/19 07:00:11;;;;;;;23.13;19.37;;;11.00;99.90;;;;;;5047813;28;20412;-40
2021/04/19 07:03:03;;;;;;;21.13;18.90;;;11.10;99.90;;;;;;5048040;28;20574;-39
2021/04/19 07:05:35;;;;;;;20.43;18.27;;;11.10;99.90;;;;;;5039509;28;20424;-41
2021/04/19 07:08:39;;;;;;;19.33;17.17;;;11.20;99.90;;;;;;5046836;28;20423;-43
2021/04/19 07:11:06;;;;;;;17.73;15.83;;;11.10;99.90;;;;;;5036403;28;20420;-39
2021/04/19 07:13:36;;;;;;;18.97;16.03;;;11.10;99.90;;;;;;5046331;28;20417;-39
2021/04/19 07:16:02;;;;;;;16.40;14.70;;;11.10;99.90;;;;;;5048178;28;20895;-40
2021/04/19 07:18:28;;;;;;;16.13;14.53;;;11.30;99.90;;;;;;5047750;28;20521;-39
2021/04/19 07:20:54;;;;;;;18.00;15.80;;;11.10;99.90;;;;;;5037183;28;20240;-41
2021/04/19 07:23:20;;;;;;;16.67;14.97;;;11.00;99.90;;;;;;5047266;28;20806;-40
2021/04/19 07:25:46;;;;;;;16.70;15.00;;;10.90;99.90;;;;;;5047518;28;20240;-40
2021/04/19 07:28:14;;;;;;;16.40;14.70;;;11.10;99.90;;;;;;5047541;28;20420;-44
2021/04/19 07:30:43;;;;;;;16.50;14.70;;;11.00;99.90;;;;;;5047195;28;20768;-40
2021/04/19 07:33:25;;;;;;;19.37;16.37;;;11.10;99.90;;;;;;5047589;28;20489;-39
2021/04/19 07:35:50;;;;;;;16.73;14.97;;;11.00;99.90;;;;;;5036008;28;20440;-42
2021/04/19 07:38:30;;;;;;;15.27;13.67;;;11.10;99.90;;;;;;5047129;28;20447;-42
2021/04/19 07:40:55;;;;;;;16.70;14.93;;;11.10;99.90;;;;;;5046674;28;20177;-39
2021/04/19 07:43:24;;;;;;;14.20;12.80;;;11.10;99.90;;;;;;5047517;28;20795;-39
2021/04/19 07:46:08;;;;;;;15.40;13.80;;;11.00;99.90;;;;;;5047194;28;20209;-39
2021/04/19 07:48:38;;;;;;;14.57;13.17;;;11.10;99.90;;;;;;5047176;28;20432;-40
2021/04/19 07:51:24;;;;;;;14.03;12.57;;;11.10;99.90;;;;;;5036448;28;20420;-39
2021/04/19 07:53:51;;;;;;;13.87;12.53;;;11.20;99.90;;;;;;5044752;28;20489;-39
2021/04/19 07:56:18;;;;;;;13.60;12.20;;;11.20;99.90;;;;;;5046933;28;20420;-40
2021/04/19 07:58:44;;;;;;;14.00;12.50;;;11.20;99.90;;;;;;5047083;28;20609;-41
2021/04/19 08:01:10;;;;;;;12.87;11.60;;;11.30;99.90;;;;;;5046222;28;20424;-41
2021/04/19 08:03:41;;;;;;;11.03;10.03;;;11.30;99.90;;;;;;5047122;28;20477;-40
2021/04/19 08:06:21;;;;;;;11.30;10.27;;;11.30;99.90;;;;;;5039066;28;20871;-41
2021/04/19 08:08:48;;;;;;;11.07;8.63;;;11.30;99.90;;;;;;5041962;28;20428;-42
2021/04/19 08:11:18;;;;;;;9.93;8.40;;;11.40;99.90;;;;;;5046202;28;20424;-40
2021/04/19 08:13:45;;;;;;;8.07;7.27;;;11.60;99.90;;;;;;5046792;28;20424;-40
2021/04/19 08:16:17;;;;;;;9.07;8.13;;;11.70;99.90;;;;;;5046048;28;20431;-39
2021/04/19 08:18:44;;;;;;;8.20;7.40;;;11.80;99.90;;;;;;5047257;28;20452;-41
2021/04/19 08:21:11;;;;;;;6.60;6.00;;;12.00;99.90;;;;;;5042743;28;20436;-38
2021/04/19 08:23:44;;;;;;;4.93;4.43;;;12.20;99.90;;;;;;5046695;28;20957;-40
2021/04/19 08:26:11;;;;;;;4.00;3.70;;;12.40;99.90;;;;;;5042344;28;20463;-44
2021/04/19 08:28:49;;;;;;;3.37;3.03;;;12.60;99.90;;;;;;5046555;28;20919;-40
2021/04/19 08:31:17;;;;;;;3.40;3.10;;;12.80;99.90;;;;;;5045518;28;20758;-41
2021/04/19 08:33:45;;;;;;;3.70;3.20;;;13.00;99.90;;;;;;5045617;28;20487;-43
2021/04/19 08:36:13;;;;;;;3.50;3.20;;;13.00;99.90;;;;;;5038792;28;20440;-38
2021/04/19 08:38:39;;;;;;;6.00;3.73;;;13.00;99.90;;;;;;5046348;28;20728;-44
2021/04/19 08:41:06;;;;;;;3.40;3.10;;;13.10;99.90;;;;;;5046002;28;20556;-41
2021/04/19 08:43:34;;;;;;;3.27;2.97;;;13.20;99.90;;;;;;5045945;28;20455;-40
2021/04/19 08:46:04;;;;;;;3.10;2.80;;;13.20;99.90;;;;;;5044636;28;20427;-39
2021/04/19 08:48:31;;;;;;;3.10;2.87;;;13.30;99.90;;;;;;5044580;28;20634;-42
2021/04/19 08:51:02;;;;;;;4.40;4.00;;;13.50;99.90;;;;;;5041471;28;20428;-41
2021/04/19 08:53:28;;;;;;;4.80;4.30;;;13.50;99.90;;;;;;5043873;28;20424;-39
2021/04/19 08:55:54;;;;;;;3.30;2.90;;;13.50;99.90;;;;;;5045902;28;20447;-44
2021/04/19 08:58:20;;;;;;;3.27;2.97;;;13.40;99.90;;;;;;5046193;28;20456;-40
2021/04/19 09:00:53;;;;;;;5.80;3.40;;;13.40;99.90;;;;;;5045477;28;20469;-40
2021/04/19 09:03:20;;;;;;;2.90;2.57;;;13.40;99.90;;;;;;5046068;28;20417;-42
2021/04/19 09:05:47;;;;;;;3.80;2.97;;;13.50;99.90;;;;;;5049473;28;20777;-40
2021/04/19 09:08:15;;;;;;;4.13;3.40;;;13.70;99.90;;;;;;5039747;28;20800;-44
2021/04/19 09:11:06;;;;;;;3.73;3.43;;;13.90;99.90;;;;;;5044983;28;20504;-41
2021/04/19 09:13:39;;;;;;;4.63;3.70;;;14.00;99.90;;;;;;5046565;28;20439;-41
2021/04/19 09:16:17;;;;;;;3.73;3.27;;;13.80;99.90;;;;;;5045682;28;20432;-39
2021/04/19 09:18:53;;;;;;;4.30;3.90;;;13.80;99.90;;;;;;5044631;28;20464;-41
2021/04/19 09:21:43;;;;;;;3.77;3.10;;;13.80;99.90;;;;;;5041832;28;20506;-40
2021/04/19 09:24:12;;;;;;;4.13;3.50;;;13.90;99.90;;;;;;5044904;28;20470;-41
2021/04/19 09:26:54;;;;;;;4.13;3.47;;;14.00;99.90;;;;;;5045066;28;20879;-40
2021/04/19 09:29:27;;;;;;;4.07;3.67;;;14.30;99.90;;;;;;5060456;28;20791;-40
2021/04/19 09:31:57;;;;;;;3.93;3.60;;;14.50;99.90;;;;;;5045714;28;20448;-41
2021/04/19 09:34:53;;;;;;;3.53;3.23;;;14.60;99.90;;;;;;5045355;28;20551;-43
2021/04/19 09:37:22;;;;;;;5.77;5.27;;;14.60;99.90;;;;;;5036444;28;21050;-40
2021/04/19 09:40:01;;;;;;;8.43;5.77;;;14.50;99.90;;;;;;5041954;28;20452;-41
2021/04/19 09:43:05;;;;;;;6.10;5.50;;;14.30;99.90;;;;;;5045722;28;20455;-39
2021/04/19 09:45:46;;;;;;;6.17;5.30;;;14.10;99.90;;;;;;5045402;28;20431;-39
2021/04/19 09:48:27;;;;;;;6.00;5.40;;;14.00;99.90;;;;;;5045337;28;20417;-42
2021/04/19 09:51:12;;;;;;;5.17;4.60;;;14.00;99.90;;;;;;5045086;28;20581;-41
2021/04/19 09:53:39;;;;;;;5.53;4.87;;;14.00;99.90;;;;;;5034586;28;20428;-44
2021/04/19 09:56:06;;;;;;;6.07;5.47;;;14.40;99.90;;;;;;5045253;28;20436;-42
2021/04/19 09:58:32;;;;;;;5.13;4.63;;;14.90;99.90;;;;;;5045453;28;20459;-42
2021/04/19 10:00:59;;;;;;;4.90;4.50;;;15.40;99.90;;;;;;5044959;28;20792;-42
2021/04/19 10:03:25;;;;;;;5.70;5.20;;;15.70;99.90;;;;;;5045515;28;20507;-38
2021/04/19 10:05:53;;;;;;;5.33;4.83;;;16.00;99.90;;;;;;5045427;28;20416;-39
2021/04/19 10:08:19;;;;;;;6.50;4.53;;;16.20;99.90;;;;;;5039065;28;20810;-42
2021/04/19 10:10:55;;;;;;;5.40;4.33;;;16.50;99.80;;;;;;5044616;28;20618;-42
2021/04/19 10:13:32;;;;;;;5.60;4.97;;;16.80;99.90;;;;;;5045586;28;20412;-41
2021/04/19 10:16:10;;;;;;;4.83;4.43;;;16.60;99.90;;;;;;5045129;28;20799;-43
2021/04/19 10:18:46;;;;;;;5.00;4.50;;;16.30;99.90;;;;;;5043699;28;20958;-41
2021/04/19 10:21:25;;;;;;;5.30;4.80;;;16.10;99.90;;;;;;5044586;28;20538;-43
2021/04/19 10:23:51;;;;;;;5.50;4.70;;;16.10;99.70;;;;;;5038133;28;20433;-39
2021/04/19 10:26:17;;;;;;;4.40;4.00;;;15.80;99.40;;;;;;5043202;28;20435;-40
2021/04/19 10:28:45;;;;;;;4.50;4.10;;;15.60;99.90;;;;;;5027373;28;20604;-42
2021/04/19 10:31:19;;;;;;;4.70;4.30;;;15.30;99.90;;;;;;5044858;28;20190;-38
2021/04/19 10:33:55;;;;;;;4.30;3.90;;;15.10;99.90;;;;;;5048859;28;20485;-40
2021/04/19 10:36:29;;;;;;;4.60;3.90;;;15.00;99.90;;;;;;5047158;28;20847;-45
2021/04/19 10:38:57;;;;;;;4.30;3.47;;;14.90;99.90;;;;;;5036697;28;20461;-43
2021/04/19 10:41:36;;;;;;;4.40;3.63;;;14.80;99.90;;;;;;5048154;28;20585;-42
2021/04/19 10:44:04;;;;;;;4.73;4.33;;;14.80;99.90;;;;;;5043993;28;20416;-44
2021/04/19 10:46:32;;;;;;;6.27;5.67;;;14.80;99.90;;;;;;5048591;28;20416;-41
2021/04/19 10:49:00;;;;;;;7.83;7.10;;;14.80;99.90;;;;;;5047877;28;20930;-40
2021/04/19 10:51:34;;;;;;;7.63;6.87;;;14.70;99.90;;;;;;5048546;28;20424;-41
2021/04/19 10:54:06;;;;;;;8.00;6.90;;;14.80;99.90;;;;;;5039992;28;20780;-39
2021/04/19 10:56:31;;;;;;;9.03;8.23;;;14.70;99.90;;;;;;5048817;28;20786;-42
2021/04/19 10:59:09;;;;;;;8.40;7.60;;;14.50;99.90;;;;;;5047611;28;20491;-41
2021/04/19 11:01:38;;;;;;;8.67;7.77;;;14.50;99.90;;;;;;5048394;28;20192;-41
2021/04/19 11:04:07;;;;;;;11.50;9.43;;;14.40;99.90;;;;;;5035494;28;20602;-42
2021/04/19 11:06:34;;;;;;;9.47;8.57;;;14.30;99.90;;;;;;5047964;28;20428;-39
2021/04/19 11:09:05;;;;;;;9.43;8.30;;;14.10;99.90;;;;;;5037763;28;20437;-44
2021/04/19 11:11:38;;;;;;;9.70;8.67;;;14.10;99.90;;;;;;5042899;28;20797;-40
2021/04/19 11:14:19;;;;;;;9.60;8.63;;;14.00;99.90;;;;;;5048285;28;20439;-39
2021/04/19 11:16:53;;;;;;;10.67;8.43;;;13.90;99.90;;;;;;5047602;28;20518;-39
2021/04/19 11:19:40;;;;;;;10.77;9.60;;;13.90;99.90;;;;;;5047439;28;20464;-42
2021/04/19 11:22:28;;;;;;;8.90;7.60;;;13.80;99.90;;;;;;5047840;28;20599;-41
2021/04/19 11:25:24;;;;;;;10.10;8.10;;;13.70;99.90;;;;;;5036042;28;20562;-41
2021/04/19 11:28:17;;;;;;;10.63;9.23;;;13.70;99.90;;;;;;5045011;28;20408;-43
2021/04/19 11:30:43;;;;;;;9.67;8.67;;;13.70;99.90;;;;;;5047327;28;20416;-40
2021/04/19 11:33:21;;;;;;;9.03;8.13;;;13.70;99.90;;;;;;5047600;28;20993;-40
2021/04/19 11:35:49;;;;;;;9.83;8.93;;;13.80;99.90;;;;;;5045691;28;20469;-42
2021/04/19 11:38:18;;;;;;;9.83;8.03;;;13.90;99.90;;;;;;5044310;28;20460;-43
2021/04/19 11:40:45;;;;;;;11.77;8.10;;;13.90;99.90;;;;;;5037222;28;20421;-41
2021/04/19 11:43:22;;;;;;;12.67;8.33;;;13.90;99.90;;;;;;5047408;28;20620;-41
2021/04/19 11:46:10;;;;;;;8.20;7.10;;;14.00;99.90;;;;;;5047353;28;20825;-40
2021/04/19 11:48:38;;;;;;;9.30;7.40;;;14.10;99.90;;;;;;5047374;28;20767;-40
2021/04/19 11:51:05;;;;;;;8.83;7.93;;;14.10;99.90;;;;;;5046535;28;20428;-41
2021/04/19 11:53:33;;;;;;;8.30;7.50;;;14.20;99.90;;;;;;5043405;28;20451;-39
2021/04/19 11:56:00;;;;;;;9.10;7.77;;;14.30;99.90;;;;;;5040940;28;20507;-45
2021/04/19 11:58:26;;;;;;;8.47;7.63;;;14.40;99.90;;;;;;5046837;28;20610;-44
2021/04/19 12:00:54;;;;;;;9.10;8.30;;;14.40;99.90;;;;;;5066527;28;20419;-39
2021/04/19 12:03:23;;;;;;;10.10;8.00;;;14.50;99.90;;;;;;5066034;28;20189;-42
2021/04/19 12:05:49;;;;;;;9.23;8.30;;;14.50;99.90;;;;;;5067164;28;20422;-39
2021/04/19 12:08:15;;;;;;;9.50;8.60;;;14.60;99.90;;;;;;5064401;28;20510;-41
2021/04/19 12:10:42;;;;;;;9.73;8.83;;;14.60;99.90;;;;;;5037446;28;20178;-38
2021/04/19 12:13:13;;;;;;;9.03;8.13;;;14.70;99.90;;;;;;5046648;28;20182;-39
2021/04/19 12:15:40;;;;;;;9.50;8.50;;;14.70;99.90;;;;;;5046888;28;20416;-42
2021/04/19 12:18:05;;;;;;;9.83;8.73;;;14.70;99.90;;;;;;5046903;28;20957;-41
2021/04/19 12:20:31;;;;;;;8.30;6.70;;;14.70;99.90;;;;;;5046346;28;20507;-40
2021/04/19 12:22:57;;;;;;;8.53;7.60;;;14.80;99.90;;;;;;5046598;28;20547;-40
2021/04/19 12:25:23;;;;;;;8.23;7.27;;;14.80;99.90;;;;;;5035570;28;20190;-41
2021/04/19 12:27:48;;;;;;;7.80;7.10;;;14.90;99.90;;;;;;5046766;28;20251;-41
2021/04/19 12:30:14;;;;;;;8.77;7.93;;;15.00;99.90;;;;;;5045908;28;20431;-42
2021/04/19 12:32:40;;;;;;;7.77;7.07;;;15.10;99.90;;;;;;5046514;28;20672;-42
2021/04/19 12:35:06;;;;;;;6.33;5.73;;;15.10;99.90;;;;;;5045125;28;20435;-44
2021/04/19 12:37:32;;;;;;;8.00;7.20;;;15.20;99.70;;;;;;5046771;28;20185;-40
2021/04/19 12:39:58;;;;;;;8.50;7.70;;;15.30;99.50;;;;;;5038724;28;20547;-39
2021/04/19 12:42:24;;;;;;;8.20;7.40;;;15.30;99.90;;;;;;5042300;28;20213;-43
2021/04/19 12:44:50;;;;;;;10.83;8.17;;;15.30;99.50;;;;;;5045911;28;20923;-40
2021/04/19 12:47:15;;;;;;;9.33;8.03;;;15.50;99.80;;;;;;5045882;28;20640;-45